sensor_id;sensor_type;location;lat;lon;timestamp;pressure;altitude;pressure_sealevel;temperature;humidity
76050;BME280;64967;50.234;19.224;2022-11-20T00:01:19;98198.53;;;-8.02;81.99
76050;BME280;64967;50.234;19.224;2022-11-20T00:03:47;98198.69;;;-8.05;82.10
76050;BME280;64967;50.234;19.224;2022-11-20T00:06:17;98195.44;;;-8.08;84.00
76050;BME280;64967;50.234;19.224;2022-11-20T00:08:45;98168.66;;;-8.28;84.20
76050;BME280;64967;50.234;19.224;2022-11-20T00:11:20;98180.63;;;-8.09;84.59
76050;BME280;64967;50.234;19.224;2022-11-20T00:13:50;98175.00;;;-8.03;84.17
76050;BME280;64967;50.234;19.224;2022-11-20T00:16:19;98185.00;;;-7.96;83.31
76050;BME280;64967;50.234;19.224;2022-11-20T00:18:47;98170.97;;;-7.95;83.51
76050;BME280;64967;50.234;19.224;2022-11-20T00:21:19;98166.56;;;-7.94;83.42
76050;BME280;64967;50.234;19.224;2022-11-20T00:23:48;98172.13;;;-8.13;84.62
76050;BME280;64967;50.234;19.224;2022-11-20T00:26:17;98172.03;;;-8.12;85.42
76050;BME280;64967;50.234;19.224;2022-11-20T00:28:50;98165.09;;;-8.13;85.59
76050;BME280;64967;50.234;19.224;2022-11-20T00:31:17;98163.63;;;-8.17;85.40
76050;BME280;64967;50.234;19.224;2022-11-20T00:33:45;98138.38;;;-8.32;86.79
76050;BME280;64967;50.234;19.224;2022-11-20T00:36:16;98164.25;;;-8.13;87.21
76050;BME280;64967;50.234;19.224;2022-11-20T00:38:43;98149.94;;;-8.22;86.47
76050;BME280;64967;50.234;19.224;2022-11-20T00:41:13;98168.28;;;-8.07;86.56
76050;BME280;64967;50.234;19.224;2022-11-20T00:43:41;98175.78;;;-8.16;85.78
76050;BME280;64967;50.234;19.224;2022-11-20T00:46:12;98173.91;;;-8.28;83.52
76050;BME280;64967;50.234;19.224;2022-11-20T00:48:39;98171.25;;;-8.40;83.77
76050;BME280;64967;50.234;19.224;2022-11-20T00:51:07;98164.59;;;-8.32;84.09
76050;BME280;64967;50.234;19.224;2022-11-20T00:53:34;98178.22;;;-8.27;83.09
76050;BME280;64967;50.234;19.224;2022-11-20T00:56:07;98169.84;;;-8.32;83.31
76050;BME280;64967;50.234;19.224;2022-11-20T00:58:36;98147.00;;;-8.44;82.00
76050;BME280;64967;50.234;19.224;2022-11-20T01:01:12;98165.94;;;-8.39;80.84
76050;BME280;64967;50.234;19.224;2022-11-20T01:03:43;98164.72;;;-8.47;81.74
76050;BME280;64967;50.234;19.224;2022-11-20T01:06:14;98159.91;;;-8.55;83.16
76050;BME280;64967;50.234;19.224;2022-11-20T01:08:42;98157.13;;;-8.66;83.22
76050;BME280;64967;50.234;19.224;2022-11-20T01:11:12;98150.56;;;-8.73;84.91
76050;BME280;64967;50.234;19.224;2022-11-20T01:13:40;98151.81;;;-8.79;84.15
76050;BME280;64967;50.234;19.224;2022-11-20T01:16:16;98149.81;;;-8.75;83.77
76050;BME280;64967;50.234;19.224;2022-11-20T01:18:46;98155.06;;;-8.75;85.18
76050;BME280;64967;50.234;19.224;2022-11-20T01:21:16;98151.88;;;-8.80;85.80
76050;BME280;64967;50.234;19.224;2022-11-20T01:23:45;98151.88;;;-8.80;85.23
76050;BME280;64967;50.234;19.224;2022-11-20T01:26:17;98141.59;;;-8.83;84.56
76050;BME280;64967;50.234;19.224;2022-11-20T01:28:45;98141.22;;;-8.77;84.29
76050;BME280;64967;50.234;19.224;2022-11-20T01:31:18;98145.31;;;-8.73;85.41
76050;BME280;64967;50.234;19.224;2022-11-20T01:33:49;98136.53;;;-8.72;84.44
76050;BME280;64967;50.234;19.224;2022-11-20T01:36:17;98131.94;;;-8.69;84.84
76050;BME280;64967;50.234;19.224;2022-11-20T01:38:45;98131.50;;;-8.61;83.43
76050;BME280;64967;50.234;19.224;2022-11-20T01:41:14;98127.53;;;-8.68;82.86
76050;BME280;64967;50.234;19.224;2022-11-20T01:44:00;98099.69;;;-8.83;83.31
76050;BME280;64967;50.234;19.224;2022-11-20T01:46:27;98122.22;;;-8.67;83.46
76050;BME280;64967;50.234;19.224;2022-11-20T01:49:20;98112.50;;;-8.79;82.25
76050;BME280;64967;50.234;19.224;2022-11-20T01:51:49;98129.81;;;-8.76;82.23
76050;BME280;64967;50.234;19.224;2022-11-20T01:54:23;98109.47;;;-8.87;81.95
76050;BME280;64967;50.234;19.224;2022-11-20T01:56:54;98117.75;;;-8.79;82.62
76050;BME280;64967;50.234;19.224;2022-11-20T01:59:26;98127.53;;;-8.82;82.46
76050;BME280;64967;50.234;19.224;2022-11-20T02:01:55;98125.13;;;-8.85;82.31
76050;BME280;64967;50.234;19.224;2022-11-20T02:04:23;98130.56;;;-8.88;82.79
76050;BME280;64967;50.234;19.224;2022-11-20T02:07:04;98110.88;;;-8.95;81.94
76050;BME280;64967;50.234;19.224;2022-11-20T02:09:51;98129.69;;;-9.03;81.92
76050;BME280;64967;50.234;19.224;2022-11-20T02:12:37;98130.53;;;-9.02;82.61
76050;BME280;64967;50.234;19.224;2022-11-20T02:15:43;98142.69;;;-9.01;83.11
76050;BME280;64967;50.234;19.224;2022-11-20T02:18:44;98143.06;;;-9.08;83.66
76050;BME280;64967;50.234;19.224;2022-11-20T02:24:56;98150.63;;;-9.03;83.85
76050;BME280;64967;50.234;19.224;2022-11-20T02:27:46;98145.47;;;-9.05;83.72
76050;BME280;64967;50.234;19.224;2022-11-20T02:30:21;98154.03;;;-9.01;84.05
76050;BME280;64967;50.234;19.224;2022-11-20T02:32:48;98160.75;;;-8.97;83.86
76050;BME280;64967;50.234;19.224;2022-11-20T02:37:48;98150.56;;;-8.87;83.07
76050;BME280;64967;50.234;19.224;2022-11-20T02:40:15;98155.13;;;-8.91;81.96
76050;BME280;64967;50.234;19.224;2022-11-20T02:42:42;98165.81;;;-8.94;82.65
76050;BME280;64967;50.234;19.224;2022-11-20T02:45:09;98162.44;;;-8.96;83.42
76050;BME280;64967;50.234;19.224;2022-11-20T02:47:36;98156.72;;;-9.02;82.92
76050;BME280;64967;50.234;19.224;2022-11-20T02:50:05;98160.66;;;-8.95;83.44
76050;BME280;64967;50.234;19.224;2022-11-20T02:52:33;98162.06;;;-8.90;84.63
76050;BME280;64967;50.234;19.224;2022-11-20T02:54:59;98150.38;;;-8.84;84.72
76050;BME280;64967;50.234;19.224;2022-11-20T02:57:27;98151.69;;;-8.77;83.68
76050;BME280;64967;50.234;19.224;2022-11-20T02:59:54;98151.53;;;-8.74;83.67
76050;BME280;64967;50.234;19.224;2022-11-20T03:02:21;98144.22;;;-8.69;81.99
76050;BME280;64967;50.234;19.224;2022-11-20T03:04:48;98150.75;;;-8.76;82.56
76050;BME280;64967;50.234;19.224;2022-11-20T03:07:15;98144.31;;;-8.85;82.06
76050;BME280;64967;50.234;19.224;2022-11-20T03:09:42;98145.88;;;-8.82;83.15
76050;BME280;64967;50.234;19.224;2022-11-20T03:12:09;98148.13;;;-8.76;82.66
76050;BME280;64967;50.234;19.224;2022-11-20T03:14:36;98144.03;;;-8.80;82.34
76050;BME280;64967;50.234;19.224;2022-11-20T03:17:03;98149.25;;;-8.94;82.02
76050;BME280;64967;50.234;19.224;2022-11-20T03:19:30;98138.47;;;-9.04;83.13
76050;BME280;64967;50.234;19.224;2022-11-20T03:21:57;98141.22;;;-9.06;83.33
76050;BME280;64967;50.234;19.224;2022-11-20T03:24:24;98144.09;;;-9.10;84.40
76050;BME280;64967;50.234;19.224;2022-11-20T03:26:51;98142.59;;;-9.00;84.94
76050;BME280;64967;50.234;19.224;2022-11-20T03:29:18;98146.91;;;-8.99;85.59
76050;BME280;64967;50.234;19.224;2022-11-20T03:31:46;98150.09;;;-8.94;84.80
76050;BME280;64967;50.234;19.224;2022-11-20T03:34:13;98150.47;;;-8.86;83.40
76050;BME280;64967;50.234;19.224;2022-11-20T03:36:42;98142.72;;;-8.87;83.13
76050;BME280;64967;50.234;19.224;2022-11-20T03:39:09;98150.38;;;-8.84;82.43
76050;BME280;64967;50.234;19.224;2022-11-20T03:41:38;98157.97;;;-8.80;81.97
76050;BME280;64967;50.234;19.224;2022-11-20T03:44:07;98148.50;;;-8.82;81.33
76050;BME280;64967;50.234;19.224;2022-11-20T03:46:35;98148.03;;;-8.89;81.16
76050;BME280;64967;50.234;19.224;2022-11-20T03:49:03;98152.50;;;-8.91;81.49
76050;BME280;64967;50.234;19.224;2022-11-20T03:51:32;98140.53;;;-8.95;81.22
76050;BME280;64967;50.234;19.224;2022-11-20T03:54:04;98154.69;;;-8.97;81.46
76050;BME280;64967;50.234;19.224;2022-11-20T03:56:34;98144.75;;;-9.07;81.56
76050;BME280;64967;50.234;19.224;2022-11-20T03:59:01;98152.03;;;-9.12;82.72
76050;BME280;64967;50.234;19.224;2022-11-20T04:01:32;98146.59;;;-9.09;83.26
76050;BME280;64967;50.234;19.224;2022-11-20T04:04:00;98143.91;;;-9.07;82.86
76050;BME280;64967;50.234;19.224;2022-11-20T04:06:34;98147.38;;;-9.07;83.36
76050;BME280;64967;50.234;19.224;2022-11-20T04:09:02;98137.25;;;-9.13;82.90
76050;BME280;64967;50.234;19.224;2022-11-20T04:11:31;98136.97;;;-9.08;82.30
76050;BME280;64967;50.234;19.224;2022-11-20T04:14:00;98131.66;;;-9.07;83.33
76050;BME280;64967;50.234;19.224;2022-11-20T04:16:33;98121.19;;;-9.07;82.42
76050;BME280;64967;50.234;19.224;2022-11-20T04:19:02;98131.47;;;-9.04;83.58
76050;BME280;64967;50.234;19.224;2022-11-20T04:21:29;98110.72;;;-9.07;81.96
76050;BME280;64967;50.234;19.224;2022-11-20T04:23:57;98126.06;;;-9.00;82.80
76050;BME280;64967;50.234;19.224;2022-11-20T04:26:26;98121.75;;;-9.01;82.79
76050;BME280;64967;50.234;19.224;2022-11-20T04:28:53;98118.22;;;-9.00;83.12
76050;BME280;64967;50.234;19.224;2022-11-20T04:31:22;98114.75;;;-9.01;83.25
76050;BME280;64967;50.234;19.224;2022-11-20T04:33:49;98109.94;;;-9.09;81.96
76050;BME280;64967;50.234;19.224;2022-11-20T04:36:26;98102.38;;;-9.13;83.11
76050;BME280;64967;50.234;19.224;2022-11-20T04:38:56;98106.41;;;-9.08;82.39
76050;BME280;64967;50.234;19.224;2022-11-20T04:41:25;98111.44;;;-9.05;82.54
76050;BME280;64967;50.234;19.224;2022-11-20T04:43:55;98103.50;;;-9.03;82.31
76050;BME280;64967;50.234;19.224;2022-11-20T04:46:27;98057.03;;;-9.28;82.48
76050;BME280;64967;50.234;19.224;2022-11-20T04:48:54;98104.06;;;-9.12;81.14
76050;BME280;64967;50.234;19.224;2022-11-20T04:51:21;98097.59;;;-9.21;81.37
76050;BME280;64967;50.234;19.224;2022-11-20T04:53:49;98094.34;;;-9.24;80.55
76050;BME280;64967;50.234;19.224;2022-11-20T04:56:16;98098.72;;;-9.25;80.26
76050;BME280;64967;50.234;19.224;2022-11-20T04:58:43;98088.53;;;-9.29;81.04
76050;BME280;64967;50.234;19.224;2022-11-20T05:01:16;98089.38;;;-9.29;80.29
76050;BME280;64967;50.234;19.224;2022-11-20T05:03:44;98091.06;;;-9.28;80.78
76050;BME280;64967;50.234;19.224;2022-11-20T05:06:13;98088.59;;;-9.31;81.95
76050;BME280;64967;50.234;19.224;2022-11-20T05:08:41;98090.50;;;-9.33;81.53
76050;BME280;64967;50.234;19.224;2022-11-20T05:11:11;98089.44;;;-9.30;81.74
76050;BME280;64967;50.234;19.224;2022-11-20T05:13:39;98097.94;;;-9.27;81.52
76050;BME280;64967;50.234;19.224;2022-11-20T05:16:12;98085.06;;;-9.30;81.84
76050;BME280;64967;50.234;19.224;2022-11-20T05:18:40;98072.91;;;-9.31;82.68
76050;BME280;64967;50.234;19.224;2022-11-20T05:21:09;98077.47;;;-9.34;82.33
76050;BME280;64967;50.234;19.224;2022-11-20T05:23:37;98077.97;;;-9.28;82.47
76050;BME280;64967;50.234;19.224;2022-11-20T05:26:05;98070.13;;;-9.28;81.45
76050;BME280;64967;50.234;19.224;2022-11-20T05:28:33;98069.16;;;-9.27;81.78
76050;BME280;64967;50.234;19.224;2022-11-20T05:31:07;98074.78;;;-9.33;81.53
76050;BME280;64967;50.234;19.224;2022-11-20T05:33:35;98063.19;;;-9.29;81.73
76050;BME280;64967;50.234;19.224;2022-11-20T05:36:03;98072.53;;;-9.25;81.10
76050;BME280;64967;50.234;19.224;2022-11-20T05:38:31;98071.03;;;-9.29;80.86
76050;BME280;64967;50.234;19.224;2022-11-20T05:41:16;98065.97;;;-9.32;80.80
76050;BME280;64967;50.234;19.224;2022-11-20T05:43:45;98075.16;;;-9.25;81.36
76050;BME280;64967;50.234;19.224;2022-11-20T05:46:14;98070.66;;;-9.23;81.19
76050;BME280;64967;50.234;19.224;2022-11-20T05:48:43;98068.81;;;-9.21;80.87
76050;BME280;64967;50.234;19.224;2022-11-20T05:51:12;98061.72;;;-9.19;80.95
76050;BME280;64967;50.234;19.224;2022-11-20T05:53:40;98063.28;;;-9.16;80.54
76050;BME280;64967;50.234;19.224;2022-11-20T05:56:17;98052.91;;;-9.18;81.47
76050;BME280;64967;50.234;19.224;2022-11-20T05:58:45;98064.78;;;-9.12;80.33
76050;BME280;64967;50.234;19.224;2022-11-20T06:01:15;98067.41;;;-9.12;79.91
76050;BME280;64967;50.234;19.224;2022-11-20T06:03:43;98070.09;;;-9.14;80.04
76050;BME280;64967;50.234;19.224;2022-11-20T06:06:13;98069.66;;;-9.20;79.54
76050;BME280;64967;50.234;19.224;2022-11-20T06:08:40;98069.91;;;-9.39;80.29
76050;BME280;64967;50.234;19.224;2022-11-20T06:11:10;98072.69;;;-9.56;81.79
76050;BME280;64967;50.234;19.224;2022-11-20T06:13:38;98073.06;;;-9.48;82.58
76050;BME280;64967;50.234;19.224;2022-11-20T06:16:09;98050.13;;;-9.59;82.80
76050;BME280;64967;50.234;19.224;2022-11-20T06:18:36;98076.81;;;-9.38;82.33
76050;BME280;64967;50.234;19.224;2022-11-20T06:21:09;98086.56;;;-9.26;82.16
76050;BME280;64967;50.234;19.224;2022-11-20T06:23:37;98080.13;;;-9.20;82.01
76050;BME280;64967;50.234;19.224;2022-11-20T06:26:06;98079.09;;;-9.18;80.73
76050;BME280;64967;50.234;19.224;2022-11-20T06:28:34;98075.34;;;-9.14;79.87
76050;BME280;64967;50.234;19.224;2022-11-20T06:31:02;98072.72;;;-9.14;80.09
76050;BME280;64967;50.234;19.224;2022-11-20T06:33:29;98080.97;;;-9.06;81.30
76050;BME280;64967;50.234;19.224;2022-11-20T06:36:00;98083.31;;;-9.01;80.65
76050;BME280;64967;50.234;19.224;2022-11-20T06:38:34;98086.59;;;-8.97;81.06
76050;BME280;64967;50.234;19.224;2022-11-20T06:41:01;98081.34;;;-8.97;82.63
76050;BME280;64967;50.234;19.224;2022-11-20T06:43:29;98071.25;;;-8.89;82.71
76050;BME280;64967;50.234;19.224;2022-11-20T06:45:58;98073.28;;;-8.80;82.07
76050;BME280;64967;50.234;19.224;2022-11-20T06:48:27;98039.72;;;-8.88;83.04
76050;BME280;64967;50.234;19.224;2022-11-20T06:50:55;98058.06;;;-8.74;81.96
76050;BME280;64967;50.234;19.224;2022-11-20T06:53:23;98056.16;;;-8.72;82.15
76050;BME280;64967;50.234;19.224;2022-11-20T06:55:50;98052.41;;;-8.68;81.42
76050;BME280;64967;50.234;19.224;2022-11-20T06:58:18;98044.97;;;-8.74;82.07
76050;BME280;64967;50.234;19.224;2022-11-20T07:00:45;98052.41;;;-8.68;83.34
76050;BME280;64967;50.234;19.224;2022-11-20T07:03:12;98044.91;;;-8.60;84.62
76050;BME280;64967;50.234;19.224;2022-11-20T07:05:40;98038.78;;;-8.46;82.91
76050;BME280;64967;50.234;19.224;2022-11-20T07:08:08;98028.06;;;-8.29;83.40
76050;BME280;64967;50.234;19.224;2022-11-20T07:10:35;98024.34;;;-8.12;83.04
76050;BME280;64967;50.234;19.224;2022-11-20T07:13:02;98028.13;;;-8.03;82.85
76050;BME280;64967;50.234;19.224;2022-11-20T07:15:30;98027.31;;;-7.91;83.87
76050;BME280;64967;50.234;19.224;2022-11-20T07:18:00;98031.78;;;-7.79;83.70
76050;BME280;64967;50.234;19.224;2022-11-20T07:20:27;98031.81;;;-7.67;82.53
76050;BME280;64967;50.234;19.224;2022-11-20T07:22:58;98039.38;;;-7.62;81.72
76050;BME280;64967;50.234;19.224;2022-11-20T07:25:26;98041.06;;;-7.61;81.70
76050;BME280;64967;50.234;19.224;2022-11-20T07:27:57;98031.72;;;-7.52;81.28
76050;BME280;64967;50.234;19.224;2022-11-20T07:30:24;98041.06;;;-7.48;82.11
76050;BME280;64967;50.234;19.224;2022-11-20T07:32:52;98047.66;;;-7.43;83.35
76050;BME280;64967;50.234;19.224;2022-11-20T07:35:20;98050.91;;;-7.52;83.52
76050;BME280;64967;50.234;19.224;2022-11-20T07:37:47;98048.19;;;-7.50;82.25
76050;BME280;64967;50.234;19.224;2022-11-20T07:40:18;98056.16;;;-7.52;81.83
76050;BME280;64967;50.234;19.224;2022-11-20T07:42:51;98050.91;;;-7.64;81.76
76050;BME280;64967;50.234;19.224;2022-11-20T07:45:19;98057.75;;;-7.62;82.41
76050;BME280;64967;50.234;19.224;2022-11-20T07:47:46;98056.81;;;-7.61;81.99
76050;BME280;64967;50.234;19.224;2022-11-20T07:50:14;98050.91;;;-7.52;82.22
76050;BME280;64967;50.234;19.224;2022-11-20T07:52:41;98040.22;;;-7.61;82.03
76050;BME280;64967;50.234;19.224;2022-11-20T07:55:09;98045.31;;;-7.73;81.35
76050;BME280;64967;50.234;19.224;2022-11-20T07:57:36;98044.16;;;-7.69;80.79
76050;BME280;64967;50.234;19.224;2022-11-20T08:00:04;98018.84;;;-7.82;81.84
76050;BME280;64967;50.234;19.224;2022-11-20T08:02:32;98041.16;;;-7.50;81.14
76050;BME280;64967;50.234;19.224;2022-11-20T08:04:59;98053.88;;;-7.56;80.79
76050;BME280;64967;50.234;19.224;2022-11-20T08:07:25;98058.06;;;-7.54;80.82
76050;BME280;64967;50.234;19.224;2022-11-20T08:09:53;98052.06;;;-7.56;81.33
76050;BME280;64967;50.234;19.224;2022-11-20T08:12:21;98056.91;;;-7.37;81.49
76050;BME280;64967;50.234;19.224;2022-11-20T08:15:07;98061.06;;;-7.20;81.03
76050;BME280;64967;50.234;19.224;2022-11-20T08:17:39;98060.81;;;-7.05;80.52
76050;BME280;64967;50.234;19.224;2022-11-20T08:20:06;98059.66;;;-6.88;79.75
76050;BME280;64967;50.234;19.224;2022-11-20T08:22:33;98058.59;;;-6.73;81.38
76050;BME280;64967;50.234;19.224;2022-11-20T08:25:00;98044.16;;;-6.55;81.17
76050;BME280;64967;50.234;19.224;2022-11-20T08:27:27;98052.81;;;-6.29;80.31
76050;BME280;64967;50.234;19.224;2022-11-20T08:29:54;98046.34;;;-6.12;80.28
76050;BME280;64967;50.234;19.224;2022-11-20T08:32:21;98053.00;;;-5.85;80.25
76050;BME280;64967;50.234;19.224;2022-11-20T08:34:48;98054.44;;;-5.57;80.17
76050;BME280;64967;50.234;19.224;2022-11-20T08:37:15;98063.16;;;-5.32;79.24
76050;BME280;64967;50.234;19.224;2022-11-20T08:39:42;98061.25;;;-5.08;79.86
76050;BME280;64967;50.234;19.224;2022-11-20T08:42:09;98060.34;;;-4.85;79.06
76050;BME280;64967;50.234;19.224;2022-11-20T08:44:36;98062.03;;;-4.62;79.67
76050;BME280;64967;50.234;19.224;2022-11-20T08:47:03;98051.47;;;-4.39;79.71
76050;BME280;64967;50.234;19.224;2022-11-20T08:49:30;98051.44;;;-4.17;80.22
76050;BME280;64967;50.234;19.224;2022-11-20T08:51:57;98055.97;;;-3.97;80.07
76050;BME280;64967;50.234;19.224;2022-11-20T08:54:24;98049.28;;;-3.80;79.57
76050;BME280;64967;50.234;19.224;2022-11-20T08:56:51;98058.09;;;-3.59;79.57
76050;BME280;64967;50.234;19.224;2022-11-20T08:59:18;98054.88;;;-3.42;80.20
76050;BME280;64967;50.234;19.224;2022-11-20T09:02:05;98049.06;;;-3.25;80.27
76050;BME280;64967;50.234;19.224;2022-11-20T09:04:32;98048.72;;;-3.10;80.42
76050;BME280;64967;50.234;19.224;2022-11-20T09:06:59;98048.97;;;-2.93;80.70
76050;BME280;64967;50.234;19.224;2022-11-20T09:09:26;98047.66;;;-2.78;80.42
76050;BME280;64967;50.234;19.224;2022-11-20T09:11:53;98042.97;;;-2.64;79.67
76050;BME280;64967;50.234;19.224;2022-11-20T09:14:21;98039.97;;;-2.50;80.29
76050;BME280;64967;50.234;19.224;2022-11-20T09:16:48;97988.63;;;-2.78;81.45
76050;BME280;64967;50.234;19.224;2022-11-20T09:19:15;98024.47;;;-2.64;82.64
76050;BME280;64967;50.234;19.224;2022-11-20T09:22:02;98043.94;;;-2.35;83.04
76050;BME280;64967;50.234;19.224;2022-11-20T09:24:29;98031.56;;;-2.25;82.12
76050;BME280;64967;50.234;19.224;2022-11-20T09:26:56;98038.16;;;-2.10;81.97
76050;BME280;64967;50.234;19.224;2022-11-20T09:29:23;98033.19;;;-1.94;79.42
76050;BME280;64967;50.234;19.224;2022-11-20T09:31:50;98035.69;;;-1.83;79.49
76050;BME280;64967;50.234;19.224;2022-11-20T09:34:17;98039.63;;;-1.67;79.06
76050;BME280;64967;50.234;19.224;2022-11-20T09:36:44;98028.88;;;-1.56;78.92
76050;BME280;64967;50.234;19.224;2022-11-20T09:39:11;98029.00;;;-1.48;78.51
76050;BME280;64967;50.234;19.224;2022-11-20T09:47:06;98041.69;;;-1.13;78.65
76050;BME280;64967;50.234;19.224;2022-11-20T09:54:54;98028.44;;;-1.13;79.01
76050;BME280;64967;50.234;19.224;2022-11-20T09:57:26;98032.31;;;-1.08;79.02
76050;BME280;64967;50.234;19.224;2022-11-20T10:00:00;98022.41;;;-1.06;78.69
76050;BME280;64967;50.234;19.224;2022-11-20T10:02:37;98014.69;;;-0.90;78.86
76050;BME280;64967;50.234;19.224;2022-11-20T10:05:15;98021.00;;;-0.91;79.12
76050;BME280;64967;50.234;19.224;2022-11-20T10:10:33;97992.13;;;-0.66;77.73
76050;BME280;64967;50.234;19.224;2022-11-20T10:19:11;97995.00;;;-0.23;75.95
76050;BME280;64967;50.234;19.224;2022-11-20T10:26:54;97988.25;;;0.00;74.81
76050;BME280;64967;50.234;19.224;2022-11-20T10:29:34;97990.34;;;0.07;74.67
76050;BME280;64967;50.234;19.224;2022-11-20T10:32:04;97997.59;;;0.05;73.68
76050;BME280;64967;50.234;19.224;2022-11-20T10:35:01;97996.25;;;0.00;74.49
76050;BME280;64967;50.234;19.224;2022-11-20T10:37:33;97992.59;;;0.02;75.37
76050;BME280;64967;50.234;19.224;2022-11-20T10:40:25;97988.66;;;0.06;75.54
76050;BME280;64967;50.234;19.224;2022-11-20T10:43:00;97971.41;;;0.10;75.34
76050;BME280;64967;50.234;19.224;2022-11-20T10:45:36;97967.19;;;0.17;74.55
76050;BME280;64967;50.234;19.224;2022-11-20T10:50:37;97973.88;;;0.21;74.32
76050;BME280;64967;50.234;19.224;2022-11-20T10:53:20;97962.63;;;0.27;74.64
76050;BME280;64967;50.234;19.224;2022-11-20T10:56:05;97960.88;;;0.35;73.96
76050;BME280;64967;50.234;19.224;2022-11-20T10:58:38;97962.25;;;0.39;74.55
76050;BME280;64967;50.234;19.224;2022-11-20T11:01:15;97957.81;;;0.48;73.80
76050;BME280;64967;50.234;19.224;2022-11-20T11:03:43;97932.53;;;0.44;73.71
76050;BME280;64967;50.234;19.224;2022-11-20T11:06:33;97954.44;;;0.64;73.41
76050;BME280;64967;50.234;19.224;2022-11-20T11:09:10;97947.31;;;0.64;73.07
76050;BME280;64967;50.234;19.224;2022-11-20T11:11:38;97934.66;;;0.58;73.87
76050;BME280;64967;50.234;19.224;2022-11-20T11:14:13;97942.34;;;0.69;72.26
76050;BME280;64967;50.234;19.224;2022-11-20T11:16:55;97944.56;;;0.74;72.76
76050;BME280;64967;50.234;19.224;2022-11-20T11:19:23;97943.88;;;0.72;72.52
76050;BME280;64967;50.234;19.224;2022-11-20T11:21:55;97937.03;;;0.69;72.44
76050;BME280;64967;50.234;19.224;2022-11-20T11:24:28;97939.03;;;0.67;73.12
76050;BME280;64967;50.234;19.224;2022-11-20T11:27:13;97936.38;;;0.67;73.22
76050;BME280;64967;50.234;19.224;2022-11-20T11:29:44;97946.00;;;0.68;73.72
76050;BME280;64967;50.234;19.224;2022-11-20T11:32:13;97949.34;;;0.70;73.94
76050;BME280;64967;50.234;19.224;2022-11-20T11:34:41;97943.19;;;0.70;72.74
76050;BME280;64967;50.234;19.224;2022-11-20T11:37:20;97939.09;;;0.75;72.81
76050;BME280;64967;50.234;19.224;2022-11-20T11:39:51;97937.78;;;0.79;72.59
76050;BME280;64967;50.234;19.224;2022-11-20T11:42:42;97929.84;;;0.87;72.60
76050;BME280;64967;50.234;19.224;2022-11-20T11:45:15;97932.50;;;0.87;72.90
76050;BME280;64967;50.234;19.224;2022-11-20T11:50:22;97930.41;;;0.99;72.00
76050;BME280;64967;50.234;19.224;2022-11-20T11:53:08;97940.28;;;1.07;71.54
76050;BME280;64967;50.234;19.224;2022-11-20T11:58:17;97930.00;;;1.12;71.26
76050;BME280;64967;50.234;19.224;2022-11-20T12:00:57;97912.97;;;1.05;71.05
76050;BME280;64967;50.234;19.224;2022-11-20T12:03:29;97893.31;;;0.98;72.13
76050;BME280;64967;50.234;19.224;2022-11-20T12:06:19;97910.06;;;1.16;71.82
76050;BME280;64967;50.234;19.224;2022-11-20T12:09:05;97909.34;;;1.14;71.92
76050;BME280;64967;50.234;19.224;2022-11-20T12:14:17;97901.69;;;1.11;71.21
76050;BME280;64967;50.234;19.224;2022-11-20T12:16:51;97904.97;;;1.05;70.89
76050;BME280;64967;50.234;19.224;2022-11-20T12:19:19;97903.53;;;1.10;70.42
76050;BME280;64967;50.234;19.224;2022-11-20T12:30:16;97901.47;;;1.30;67.53
76050;BME280;64967;50.234;19.224;2022-11-20T12:36:13;97891.16;;;1.35;67.94
76050;BME280;64967;50.234;19.224;2022-11-20T12:38:56;97883.84;;;1.37;67.74
76050;BME280;64967;50.234;19.224;2022-11-20T12:41:45;97873.69;;;1.41;68.45
76050;BME280;64967;50.234;19.224;2022-11-20T12:47:56;97862.47;;;1.21;68.30
76050;BME280;64967;50.234;19.224;2022-11-20T13:01:40;97836.38;;;0.90;69.72
76050;BME280;64967;50.234;19.224;2022-11-20T13:07:03;97835.97;;;0.77;70.69
76050;BME280;64967;50.234;19.224;2022-11-20T13:09:39;97834.13;;;0.70;71.09
76050;BME280;64967;50.234;19.224;2022-11-20T13:17:39;97823.88;;;0.49;70.95
76050;BME280;64967;50.234;19.224;2022-11-20T13:20:16;97833.88;;;0.55;70.58
76050;BME280;64967;50.234;19.224;2022-11-20T13:22:48;97832.84;;;0.48;71.27
76050;BME280;64967;50.234;19.224;2022-11-20T13:25:29;97834.50;;;0.49;71.26
76050;BME280;64967;50.234;19.224;2022-11-20T13:30:55;97829.59;;;0.62;71.65
76050;BME280;64967;50.234;19.224;2022-11-20T13:33:33;97830.63;;;0.69;71.46
76050;BME280;64967;50.234;19.224;2022-11-20T13:36:25;97839.81;;;0.75;71.11
76050;BME280;64967;50.234;19.224;2022-11-20T13:38:56;97836.81;;;0.78;70.47
76050;BME280;64967;50.234;19.224;2022-11-20T13:44:05;97823.00;;;0.74;70.19
76050;BME280;64967;50.234;19.224;2022-11-20T13:46:46;97815.81;;;0.67;69.97
76050;BME280;64967;50.234;19.224;2022-11-20T13:49:34;97813.75;;;0.53;70.64
76050;BME280;64967;50.234;19.224;2022-11-20T13:55:38;97809.44;;;0.26;71.29
76050;BME280;64967;50.234;19.224;2022-11-20T14:03:50;97807.22;;;-0.22;72.66
76050;BME280;64967;50.234;19.224;2022-11-20T14:06:46;97817.31;;;-0.26;73.92
76050;BME280;64967;50.234;19.224;2022-11-20T14:09:29;97817.09;;;-0.32;73.57
76050;BME280;64967;50.234;19.224;2022-11-20T14:12:02;97770.44;;;-0.70;74.17
76050;BME280;64967;50.234;19.224;2022-11-20T14:14:36;97806.63;;;-0.52;74.12
76050;BME280;64967;50.234;19.224;2022-11-20T14:17:31;97805.94;;;-0.54;75.01
76050;BME280;64967;50.234;19.224;2022-11-20T14:20:12;97799.13;;;-0.56;75.24
76050;BME280;64967;50.234;19.224;2022-11-20T14:22:51;97777.19;;;-0.76;76.38
76050;BME280;64967;50.234;19.224;2022-11-20T14:25:33;97730.94;;;-1.09;76.11
76050;BME280;64967;50.234;19.224;2022-11-20T14:28:10;97794.00;;;-0.67;76.47
76050;BME280;64967;50.234;19.224;2022-11-20T14:30:46;97737.50;;;-1.13;76.25
76050;BME280;64967;50.234;19.224;2022-11-20T14:33:19;97726.34;;;-1.16;75.97
76050;BME280;64967;50.234;19.224;2022-11-20T14:35:57;97804.28;;;-0.72;76.73
76050;BME280;64967;50.234;19.224;2022-11-20T14:38:32;97791.16;;;-0.74;75.98
76050;BME280;64967;50.234;19.224;2022-11-20T14:41:20;97795.63;;;-0.74;76.42
76050;BME280;64967;50.234;19.224;2022-11-20T14:44:02;97717.47;;;-1.25;76.51
76050;BME280;64967;50.234;19.224;2022-11-20T14:46:42;97787.78;;;-0.76;77.31